sensor_id;sensor_type;location;lat;lon;timestamp;P1;durP1;ratioP1;P2;durP2;ratioP2
79128;SDS011;68529;43.286;23.360;2023-08-24T00:01:06;9.85;;;8.82;;
79128;SDS011;68529;43.286;23.360;2023-08-24T00:03:32;12.25;;;9.75;;
79128;SDS011;68529;43.286;23.360;2023-08-24T00:05:57;10.38;;;9.43;;
79128;SDS011;68529;43.286;23.360;2023-08-24T00:08:23;10.02;;;9.20;;
79128;SDS011;68529;43.286;23.360;2023-08-24T00:10:48;10.38;;;9.48;;
79128;SDS011;68529;43.286;23.360;2023-08-24T00:13:14;10.70;;;9.80;;
79128;SDS011;68529;43.286;23.360;2023-08-24T00:15:40;11.02;;;9.93;;
79128;SDS011;68529;43.286;23.360;2023-08-24T00:18:06;10.40;;;9.40;;
79128;SDS011;68529;43.286;23.360;2023-08-24T00:20:32;11.63;;;10.35;;
79128;SDS011;68529;43.286;23.360;2023-08-24T00:22:59;11.13;;;10.13;;
79128;SDS011;68529;43.286;23.360;2023-08-24T00:25:24;10.23;;;9.27;;
79128;SDS011;68529;43.286;23.360;2023-08-24T00:27:51;11.10;;;10.10;;
79128;SDS011;68529;43.286;23.360;2023-08-24T00:30:19;11.02;;;10.07;;
79128;SDS011;68529;43.286;23.360;2023-08-24T00:32:45;10.38;;;9.43;;
79128;SDS011;68529;43.286;23.360;2023-08-24T00:35:10;10.50;;;9.60;;
79128;SDS011;68529;43.286;23.360;2023-08-24T00:37:36;10.70;;;9.70;;
79128;SDS011;68529;43.286;23.360;2023-08-24T00:40:03;10.60;;;9.75;;
79128;SDS011;68529;43.286;23.360;2023-08-24T00:42:33;11.18;;;10.07;;
79128;SDS011;68529;43.286;23.360;2023-08-24T00:45:01;11.82;;;10.10;;
79128;SDS011;68529;43.286;23.360;2023-08-24T00:47:27;11.13;;;10.02;;
79128;SDS011;68529;43.286;23.360;2023-08-24T00:49:54;10.95;;;10.15;;
79128;SDS011;68529;43.286;23.360;2023-08-24T00:52:20;11.63;;;10.60;;
79128;SDS011;68529;43.286;23.360;2023-08-24T00:54:45;10.98;;;9.70;;
79128;SDS011;68529;43.286;23.360;2023-08-24T00:57:12;10.02;;;9.20;;
79128;SDS011;68529;43.286;23.360;2023-08-24T00:59:38;10.65;;;9.75;;
79128;SDS011;68529;43.286;23.360;2023-08-24T01:02:04;11.07;;;10.18;;
79128;SDS011;68529;43.286;23.360;2023-08-24T01:04:30;11.20;;;10.07;;
79128;SDS011;68529;43.286;23.360;2023-08-24T01:06:55;10.73;;;9.93;;
79128;SDS011;68529;43.286;23.360;2023-08-24T01:09:21;11.35;;;10.25;;
79128;SDS011;68529;43.286;23.360;2023-08-24T01:12:05;10.40;;;9.60;;
79128;SDS011;68529;43.286;23.360;2023-08-24T01:14:56;10.52;;;9.57;;
79128;SDS011;68529;43.286;23.360;2023-08-24T01:17:29;11.13;;;10.13;;
79128;SDS011;68529;43.286;23.360;2023-08-24T01:19:56;11.38;;;10.23;;
79128;SDS011;68529;43.286;23.360;2023-08-24T01:25:01;11.32;;;10.35;;
79128;SDS011;68529;43.286;23.360;2023-08-24T01:27:37;11.60;;;10.43;;
79128;SDS011;68529;43.286;23.360;2023-08-24T01:30:04;11.23;;;10.23;;
79128;SDS011;68529;43.286;23.360;2023-08-24T01:32:31;12.43;;;11.18;;
79128;SDS011;68529;43.286;23.360;2023-08-24T01:34:58;13.05;;;10.10;;
79128;SDS011;68529;43.286;23.360;2023-08-24T01:37:27;11.25;;;10.25;;
79128;SDS011;68529;43.286;23.360;2023-08-24T01:42:31;11.15;;;10.13;;
79128;SDS011;68529;43.286;23.360;2023-08-24T01:44:59;10.95;;;10.13;;
79128;SDS011;68529;43.286;23.360;2023-08-24T01:47:29;11.50;;;10.52;;
79128;SDS011;68529;43.286;23.360;2023-08-24T01:49:56;11.52;;;10.52;;
79128;SDS011;68529;43.286;23.360;2023-08-24T01:52:21;11.00;;;10.18;;
79128;SDS011;68529;43.286;23.360;2023-08-24T01:54:48;11.55;;;10.35;;
79128;SDS011;68529;43.286;23.360;2023-08-24T01:57:13;11.23;;;10.30;;
79128;SDS011;68529;43.286;23.360;2023-08-24T01:59:39;12.25;;;11.02;;
79128;SDS011;68529;43.286;23.360;2023-08-24T02:02:04;11.85;;;10.77;;
79128;SDS011;68529;43.286;23.360;2023-08-24T02:04:30;11.60;;;10.57;;
79128;SDS011;68529;43.286;23.360;2023-08-24T02:06:55;15.10;;;11.07;;
79128;SDS011;68529;43.286;23.360;2023-08-24T02:09:20;11.85;;;10.85;;
79128;SDS011;68529;43.286;23.360;2023-08-24T02:11:46;11.48;;;10.48;;
79128;SDS011;68529;43.286;23.360;2023-08-24T02:14:11;11.93;;;10.93;;
79128;SDS011;68529;43.286;23.360;2023-08-24T02:16:37;11.90;;;10.80;;
79128;SDS011;68529;43.286;23.360;2023-08-24T02:19:02;11.40;;;10.32;;
79128;SDS011;68529;43.286;23.360;2023-08-24T02:21:27;11.77;;;10.77;;
79128;SDS011;68529;43.286;23.360;2023-08-24T02:23:53;11.52;;;10.60;;
79128;SDS011;68529;43.286;23.360;2023-08-24T02:26:18;12.70;;;11.52;;
79128;SDS011;68529;43.286;23.360;2023-08-24T02:28:45;12.07;;;11.07;;
79128;SDS011;68529;43.286;23.360;2023-08-24T02:31:10;11.95;;;10.95;;
79128;SDS011;68529;43.286;23.360;2023-08-24T02:33:36;12.35;;;11.25;;
79128;SDS011;68529;43.286;23.360;2023-08-24T02:36:01;12.38;;;11.48;;
79128;SDS011;68529;43.286;23.360;2023-08-24T02:38:27;12.15;;;11.15;;
79128;SDS011;68529;43.286;23.360;2023-08-24T02:41:02;12.52;;;11.27;;
79128;SDS011;68529;43.286;23.360;2023-08-24T02:43:28;13.10;;;12.10;;
79128;SDS011;68529;43.286;23.360;2023-08-24T02:45:54;12.40;;;11.40;;
79128;SDS011;68529;43.286;23.360;2023-08-24T02:48:24;11.90;;;10.90;;
79128;SDS011;68529;43.286;23.360;2023-08-24T02:50:49;12.70;;;11.60;;
79128;SDS011;68529;43.286;23.360;2023-08-24T02:53:14;12.32;;;11.23;;
79128;SDS011;68529;43.286;23.360;2023-08-24T02:55:40;12.68;;;11.57;;
79128;SDS011;68529;43.286;23.360;2023-08-24T02:58:05;11.90;;;11.00;;
79128;SDS011;68529;43.286;23.360;2023-08-24T03:00:30;12.88;;;11.68;;
79128;SDS011;68529;43.286;23.360;2023-08-24T03:02:56;14.50;;;11.38;;
79128;SDS011;68529;43.286;23.360;2023-08-24T03:05:21;12.27;;;11.30;;
79128;SDS011;68529;43.286;23.360;2023-08-24T03:07:46;11.82;;;10.70;;
79128;SDS011;68529;43.286;23.360;2023-08-24T03:10:12;12.38;;;11.40;;
79128;SDS011;68529;43.286;23.360;2023-08-24T03:12:37;12.05;;;11.05;;
79128;SDS011;68529;43.286;23.360;2023-08-24T03:15:03;12.75;;;11.75;;
79128;SDS011;68529;43.286;23.360;2023-08-24T03:17:28;13.27;;;11.98;;
79128;SDS011;68529;43.286;23.360;2023-08-24T03:19:54;12.90;;;11.73;;
79128;SDS011;68529;43.286;23.360;2023-08-24T03:22:19;12.70;;;11.50;;
79128;SDS011;68529;43.286;23.360;2023-08-24T03:24:45;13.93;;;12.77;;
79128;SDS011;68529;43.286;23.360;2023-08-24T03:27:10;14.35;;;11.93;;
79128;SDS011;68529;43.286;23.360;2023-08-24T03:29:35;13.05;;;11.90;;
79128;SDS011;68529;43.286;23.360;2023-08-24T03:32:01;12.80;;;11.70;;
79128;SDS011;68529;43.286;23.360;2023-08-24T03:34:26;13.05;;;11.70;;
79128;SDS011;68529;43.286;23.360;2023-08-24T03:36:52;12.73;;;11.38;;
79128;SDS011;68529;43.286;23.360;2023-08-24T03:39:17;12.73;;;11.60;;
79128;SDS011;68529;43.286;23.360;2023-08-24T03:41:43;13.20;;;11.90;;
79128;SDS011;68529;43.286;23.360;2023-08-24T03:44:08;13.38;;;12.27;;
79128;SDS011;68529;43.286;23.360;2023-08-24T03:46:33;13.15;;;11.90;;
79128;SDS011;68529;43.286;23.360;2023-08-24T03:48:59;12.43;;;11.38;;
79128;SDS011;68529;43.286;23.360;2023-08-24T03:51:24;12.00;;;11.10;;
79128;SDS011;68529;43.286;23.360;2023-08-24T03:53:50;38.75;;;33.75;;
79128;SDS011;68529;43.286;23.360;2023-08-24T03:56:15;26.40;;;23.73;;
79128;SDS011;68529;43.286;23.360;2023-08-24T03:58:40;100.18;;;67.00;;
79128;SDS011;68529;43.286;23.360;2023-08-24T04:01:09;20.98;;;18.08;;
79128;SDS011;68529;43.286;23.360;2023-08-24T04:03:35;18.60;;;14.23;;
79128;SDS011;68529;43.286;23.360;2023-08-24T04:06:01;14.85;;;13.45;;
79128;SDS011;68529;43.286;23.360;2023-08-24T04:08:26;14.05;;;12.70;;
79128;SDS011;68529;43.286;23.360;2023-08-24T04:10:51;92.38;;;82.38;;
79128;SDS011;68529;43.286;23.360;2023-08-24T04:13:17;60.63;;;52.92;;
79128;SDS011;68529;43.286;23.360;2023-08-24T04:15:42;130.98;;;97.07;;
79128;SDS011;68529;43.286;23.360;2023-08-24T04:18:07;105.55;;;75.43;;
79128;SDS011;68529;43.286;23.360;2023-08-24T04:20:33;68.05;;;55.33;;
79128;SDS011;68529;43.286;23.360;2023-08-24T04:22:58;194.30;;;126.38;;
79128;SDS011;68529;43.286;23.360;2023-08-24T04:25:24;433.05;;;291.08;;
79128;SDS011;68529;43.286;23.360;2023-08-24T04:27:49;340.00;;;236.57;;
79128;SDS011;68529;43.286;23.360;2023-08-24T04:30:14;73.22;;;53.00;;
79128;SDS011;68529;43.286;23.360;2023-08-24T04:32:40;24.45;;;19.95;;
79128;SDS011;68529;43.286;23.360;2023-08-24T04:35:05;261.15;;;200.57;;
79128;SDS011;68529;43.286;23.360;2023-08-24T04:37:31;536.08;;;316.98;;
79128;SDS011;68529;43.286;23.360;2023-08-24T04:39:56;48.67;;;33.67;;
79128;SDS011;68529;43.286;23.360;2023-08-24T04:42:22;33.30;;;27.73;;
79128;SDS011;68529;43.286;23.360;2023-08-24T04:44:47;25.08;;;17.80;;
79128;SDS011;68529;43.286;23.360;2023-08-24T04:47:13;42.78;;;36.42;;
79128;SDS011;68529;43.286;23.360;2023-08-24T04:49:38;124.45;;;96.55;;
79128;SDS011;68529;43.286;23.360;2023-08-24T04:52:03;174.55;;;139.48;;
79128;SDS011;68529;43.286;23.360;2023-08-24T04:54:29;116.35;;;88.32;;
79128;SDS011;68529;43.286;23.360;2023-08-24T04:56:55;160.35;;;111.45;;
79128;SDS011;68529;43.286;23.360;2023-08-24T04:59:20;106.88;;;81.07;;
79128;SDS011;68529;43.286;23.360;2023-08-24T05:01:46;39.25;;;34.13;;
79128;SDS011;68529;43.286;23.360;2023-08-24T05:04:11;36.35;;;32.38;;
79128;SDS011;68529;43.286;23.360;2023-08-24T05:06:36;26.25;;;23.48;;
79128;SDS011;68529;43.286;23.360;2023-08-24T05:09:02;20.23;;;18.02;;
79128;SDS011;68529;43.286;23.360;2023-08-24T05:11:28;15.50;;;12.82;;
79128;SDS011;68529;43.286;23.360;2023-08-24T05:13:56;17.10;;;14.35;;
79128;SDS011;68529;43.286;23.360;2023-08-24T05:16:22;18.60;;;14.77;;
79128;SDS011;68529;43.286;23.360;2023-08-24T05:18:47;20.45;;;18.20;;
79128;SDS011;68529;43.286;23.360;2023-08-24T05:21:12;32.85;;;29.38;;
79128;SDS011;68529;43.286;23.360;2023-08-24T05:23:38;19.35;;;17.55;;
79128;SDS011;68529;43.286;23.360;2023-08-24T05:26:03;22.35;;;18.98;;
79128;SDS011;68529;43.286;23.360;2023-08-24T05:28:29;22.63;;;17.42;;
79128;SDS011;68529;43.286;23.360;2023-08-24T05:30:57;23.42;;;20.90;;
79128;SDS011;68529;43.286;23.360;2023-08-24T05:33:24;17.27;;;15.45;;
79128;SDS011;68529;43.286;23.360;2023-08-24T05:35:50;16.92;;;15.35;;
79128;SDS011;68529;43.286;23.360;2023-08-24T05:38:16;17.25;;;15.77;;
79128;SDS011;68529;43.286;23.360;2023-08-24T05:40:42;15.13;;;13.82;;
79128;SDS011;68529;43.286;23.360;2023-08-24T05:43:09;14.18;;;12.35;;
79128;SDS011;68529;43.286;23.360;2023-08-24T05:45:35;14.02;;;12.80;;
79128;SDS011;68529;43.286;23.360;2023-08-24T05:48:00;14.48;;;13.13;;
79128;SDS011;68529;43.286;23.360;2023-08-24T05:50:26;14.13;;;12.93;;
79128;SDS011;68529;43.286;23.360;2023-08-24T05:52:51;13.68;;;12.50;;
79128;SDS011;68529;43.286;23.360;2023-08-24T05:55:17;16.60;;;12.55;;
79128;SDS011;68529;43.286;23.360;2023-08-24T05:57:43;15.18;;;12.55;;
79128;SDS011;68529;43.286;23.360;2023-08-24T06:00:08;14.05;;;12.65;;
79128;SDS011;68529;43.286;23.360;2023-08-24T06:02:37;12.65;;;11.55;;
79128;SDS011;68529;43.286;23.360;2023-08-24T06:05:04;13.90;;;12.57;;
79128;SDS011;68529;43.286;23.360;2023-08-24T06:07:30;14.35;;;12.98;;
79128;SDS011;68529;43.286;23.360;2023-08-24T06:09:58;13.25;;;12.15;;
79128;SDS011;68529;43.286;23.360;2023-08-24T06:12:23;12.77;;;11.63;;
79128;SDS011;68529;43.286;23.360;2023-08-24T06:14:49;12.68;;;11.70;;
79128;SDS011;68529;43.286;23.360;2023-08-24T06:17:14;13.80;;;12.70;;
79128;SDS011;68529;43.286;23.360;2023-08-24T06:19:40;13.68;;;12.48;;
79128;SDS011;68529;43.286;23.360;2023-08-24T06:22:06;13.25;;;12.15;;
79128;SDS011;68529;43.286;23.360;2023-08-24T06:58:10;12.43;;;11.32;;
79128;SDS011;68529;43.286;23.360;2023-08-24T07:00:35;11.68;;;10.73;;
79128;SDS011;68529;43.286;23.360;2023-08-24T07:03:01;12.52;;;11.25;;
79128;SDS011;68529;43.286;23.360;2023-08-24T07:05:26;12.50;;;11.38;;
79128;SDS011;68529;43.286;23.360;2023-08-24T07:07:52;12.45;;;11.23;;
79128;SDS011;68529;43.286;23.360;2023-08-24T07:10:19;12.50;;;11.23;;
79128;SDS011;68529;43.286;23.360;2023-08-24T07:12:44;11.82;;;10.93;;
79128;SDS011;68529;43.286;23.360;2023-08-24T07:15:13;12.85;;;11.52;;
79128;SDS011;68529;43.286;23.360;2023-08-24T07:17:39;17.30;;;15.80;;
79128;SDS011;68529;43.286;23.360;2023-08-24T07:20:05;13.00;;;12.00;;
79128;SDS011;68529;43.286;23.360;2023-08-24T07:22:31;12.32;;;11.32;;
79128;SDS011;68529;43.286;23.360;2023-08-24T07:24:57;13.25;;;12.05;;
79128;SDS011;68529;43.286;23.360;2023-08-24T07:27:22;11.63;;;10.63;;
79128;SDS011;68529;43.286;23.360;2023-08-24T07:29:48;12.30;;;10.60;;
79128;SDS011;68529;43.286;23.360;2023-08-24T07:32:13;12.32;;;11.27;;
79128;SDS011;68529;43.286;23.360;2023-08-24T07:34:39;12.55;;;11.43;;
79128;SDS011;68529;43.286;23.360;2023-08-24T07:37:04;12.70;;;11.70;;
79128;SDS011;68529;43.286;23.360;2023-08-24T07:39:29;11.68;;;10.77;;
79128;SDS011;68529;43.286;23.360;2023-08-24T07:41:55;14.43;;;11.05;;
79128;SDS011;68529;43.286;23.360;2023-08-24T07:44:20;12.02;;;11.13;;
79128;SDS011;68529;43.286;23.360;2023-08-24T07:46:46;12.45;;;11.40;;
79128;SDS011;68529;43.286;23.360;2023-08-24T07:49:12;11.48;;;10.68;;
79128;SDS011;68529;43.286;23.360;2023-08-24T07:51:38;12.57;;;11.50;;
79128;SDS011;68529;43.286;23.360;2023-08-24T07:54:03;12.30;;;11.10;;
79128;SDS011;68529;43.286;23.360;2023-08-24T07:56:29;11.40;;;10.40;;
79128;SDS011;68529;43.286;23.360;2023-08-24T07:58:55;12.23;;;11.18;;
79128;SDS011;68529;43.286;23.360;2023-08-24T08:01:20;12.32;;;11.32;;
79128;SDS011;68529;43.286;23.360;2023-08-24T08:03:45;12.02;;;11.02;;
79128;SDS011;68529;43.286;23.360;2023-08-24T08:06:11;12.40;;;11.40;;
79128;SDS011;68529;43.286;23.360;2023-08-24T08:08:37;12.68;;;11.57;;
79128;SDS011;68529;43.286;23.360;2023-08-24T08:11:02;12.27;;;11.38;;
79128;SDS011;68529;43.286;23.360;2023-08-24T08:13:28;11.95;;;10.93;;
79128;SDS011;68529;43.286;23.360;2023-08-24T08:16:00;17.95;;;11.43;;
79128;SDS011;68529;43.286;23.360;2023-08-24T08:18:28;12.88;;;11.57;;
79128;SDS011;68529;43.286;23.360;2023-08-24T08:20:53;12.50;;;11.18;;
79128;SDS011;68529;43.286;23.360;2023-08-24T08:23:19;11.82;;;10.68;;
79128;SDS011;68529;43.286;23.360;2023-08-24T08:25:44;14.45;;;10.40;;
79128;SDS011;68529;43.286;23.360;2023-08-24T08:28:09;11.55;;;10.45;;
79128;SDS011;68529;43.286;23.360;2023-08-24T08:30:35;12.65;;;11.55;;
79128;SDS011;68529;43.286;23.360;2023-08-24T08:33:00;11.75;;;10.80;;
79128;SDS011;68529;43.286;23.360;2023-08-24T08:35:26;11.70;;;10.57;;
79128;SDS011;68529;43.286;23.360;2023-08-24T08:37:51;11.68;;;10.60;;
79128;SDS011;68529;43.286;23.360;2023-08-24T08:40:18;11.48;;;10.40;;
79128;SDS011;68529;43.286;23.360;2023-08-24T08:42:44;11.65;;;10.68;;
79128;SDS011;68529;43.286;23.360;2023-08-24T08:45:10;11.35;;;10.35;;
79128;SDS011;68529;43.286;23.360;2023-08-24T08:47:36;10.77;;;10.00;;
79128;SDS011;68529;43.286;23.360;2023-08-24T08:50:02;10.57;;;9.88;;
79128;SDS011;68529;43.286;23.360;2023-08-24T08:52:29;10.88;;;9.57;;
79128;SDS011;68529;43.286;23.360;2023-08-24T08:54:54;10.73;;;9.65;;
79128;SDS011;68529;43.286;23.360;2023-08-24T08:57:20;10.75;;;9.85;;
79128;SDS011;68529;43.286;23.360;2023-08-24T08:59:48;10.32;;;9.50;;
79128;SDS011;68529;43.286;23.360;2023-08-24T09:02:16;10.40;;;9.50;;
79128;SDS011;68529;43.286;23.360;2023-08-24T09:04:44;10.70;;;9.65;;
79128;SDS011;68529;43.286;23.360;2023-08-24T09:07:12;11.23;;;10.32;;
79128;SDS011;68529;43.286;23.360;2023-08-24T09:09:38;9.95;;;9.13;;
79128;SDS011;68529;43.286;23.360;2023-08-24T09:12:07;11.32;;;10.20;;
79128;SDS011;68529;43.286;23.360;2023-08-24T09:14:33;10.80;;;9.85;;
79128;SDS011;68529;43.286;23.360;2023-08-24T09:16:59;11.10;;;10.10;;
79128;SDS011;68529;43.286;23.360;2023-08-24T09:19:28;10.05;;;9.27;;
79128;SDS011;68529;43.286;23.360;2023-08-24T09:21:57;10.32;;;9.35;;
79128;SDS011;68529;43.286;23.360;2023-08-24T09:24:30;10.27;;;9.48;;
79128;SDS011;68529;43.286;23.360;2023-08-24T09:26:57;17.27;;;15.75;;
79128;SDS011;68529;43.286;23.360;2023-08-24T09:29:22;10.07;;;9.27;;
79128;SDS011;68529;43.286;23.360;2023-08-24T09:31:49;10.88;;;9.77;;
79128;SDS011;68529;43.286;23.360;2023-08-24T09:34:18;10.18;;;9.25;;
79128;SDS011;68529;43.286;23.360;2023-08-24T09:36:51;9.38;;;8.60;;
79128;SDS011;68529;43.286;23.360;2023-08-24T09:39:16;9.85;;;9.10;;
79128;SDS011;68529;43.286;23.360;2023-08-24T09:41:46;34.03;;;9.77;;
79128;SDS011;68529;43.286;23.360;2023-08-24T09:44:13;9.50;;;8.25;;
79128;SDS011;68529;43.286;23.360;2023-08-24T09:46:40;9.05;;;8.25;;
79128;SDS011;68529;43.286;23.360;2023-08-24T09:49:06;9.63;;;8.80;;
79128;SDS011;68529;43.286;23.360;2023-08-24T09:51:33;9.18;;;8.38;;
79128;SDS011;68529;43.286;23.360;2023-08-24T09:54:00;9.57;;;8.70;;
79128;SDS011;68529;43.286;23.360;2023-08-24T09:56:31;9.77;;;8.77;;
79128;SDS011;68529;43.286;23.360;2023-08-24T10:01:34;10.07;;;8.43;;
79128;SDS011;68529;43.286;23.360;2023-08-24T10:04:01;9.82;;;8.88;;
79128;SDS011;68529;43.286;23.360;2023-08-24T10:06:30;9.45;;;8.65;;
79128;SDS011;68529;43.286;23.360;2023-08-24T10:08:58;8.50;;;7.72;;
79128;SDS011;68529;43.286;23.360;2023-08-24T10:11:29;9.65;;;7.18;;
79128;SDS011;68529;43.286;23.360;2023-08-24T10:14:05;9.80;;;7.18;;
79128;SDS011;68529;43.286;23.360;2023-08-24T10:16:37;7.95;;;7.30;;
79128;SDS011;68529;43.286;23.360;2023-08-24T10:19:04;8.88;;;7.93;;
79128;SDS011;68529;43.286;23.360;2023-08-24T10:21:30;7.82;;;7.22;;
79128;SDS011;68529;43.286;23.360;2023-08-24T10:23:56;7.50;;;6.72;;
79128;SDS011;68529;43.286;23.360;2023-08-24T10:26:23;7.43;;;6.80;;
79128;SDS011;68529;43.286;23.360;2023-08-24T10:28:52;7.75;;;6.93;;
79128;SDS011;68529;43.286;23.360;2023-08-24T10:31:18;8.60;;;7.43;;
79128;SDS011;68529;43.286;23.360;2023-08-24T10:33:45;8.13;;;7.43;;
79128;SDS011;68529;43.286;23.360;2023-08-24T10:36:15;9.60;;;7.50;;
79128;SDS011;68529;43.286;23.360;2023-08-24T10:38:42;8.48;;;7.88;;
79128;SDS011;68529;43.286;23.360;2023-08-24T10:41:07;8.82;;;7.82;;
79128;SDS011;68529;43.286;23.360;2023-08-24T10:43:34;8.45;;;7.72;;
79128;SDS011;68529;43.286;23.360;2023-08-24T10:46:03;7.45;;;6.82;;
79128;SDS011;68529;43.286;23.360;2023-08-24T10:54:00;9.02;;;7.32;;
79128;SDS011;68529;43.286;23.360;2023-08-24T10:59:09;7.70;;;6.68;;
79128;SDS011;68529;43.286;23.360;2023-08-24T11:01:39;9.02;;;8.05;;
79128;SDS011;68529;43.286;23.360;2023-08-24T11:04:05;8.68;;;7.03;;
79128;SDS011;68529;43.286;23.360;2023-08-24T11:06:33;7.97;;;7.20;;
79128;SDS011;68529;43.286;23.360;2023-08-24T11:09:08;8.00;;;7.40;;
79128;SDS011;68529;43.286;23.360;2023-08-24T11:11:40;7.82;;;7.30;;
79128;SDS011;68529;43.286;23.360;2023-08-24T11:14:19;8.30;;;7.45;;
79128;SDS011;68529;43.286;23.360;2023-08-24T11:16:47;8.38;;;7.53;;
79128;SDS011;68529;43.286;23.360;2023-08-24T11:19:13;8.25;;;7.45;;
79128;SDS011;68529;43.286;23.360;2023-08-24T11:21:40;8.10;;;7.32;;
79128;SDS011;68529;43.286;23.360;2023-08-24T11:24:06;6.75;;;6.05;;
79128;SDS011;68529;43.286;23.360;2023-08-24T11:26:34;6.72;;;6.20;;
79128;SDS011;68529;43.286;23.360;2023-08-24T11:29:00;7.13;;;6.55;;
79128;SDS011;68529;43.286;23.360;2023-08-24T11:31:30;7.00;;;5.85;;
79128;SDS011;68529;43.286;23.360;2023-08-24T11:33:55;7.60;;;6.53;;
79128;SDS011;68529;43.286;23.360;2023-08-24T11:36:21;7.43;;;6.70;;
79128;SDS011;68529;43.286;23.360;2023-08-24T11:38:49;7.28;;;6.28;;
79128;SDS011;68529;43.286;23.360;2023-08-24T11:41:17;7.82;;;7.13;;
79128;SDS011;68529;43.286;23.360;2023-08-24T11:43:43;10.82;;;7.10;;
79128;SDS011;68529;43.286;23.360;2023-08-24T11:46:10;7.72;;;6.93;;
79128;SDS011;68529;43.286;23.360;2023-08-24T11:48:37;8.05;;;6.88;;
79128;SDS011;68529;43.286;23.360;2023-08-24T11:51:07;7.00;;;6.50;;
79128;SDS011;68529;43.286;23.360;2023-08-24T11:53:36;7.55;;;6.88;;
79128;SDS011;68529;43.286;23.360;2023-08-24T11:56:02;6.97;;;6.38;;
79128;SDS011;68529;43.286;23.360;2023-08-24T11:58:30;6.85;;;6.25;;
79128;SDS011;68529;43.286;23.360;2023-08-24T12:00:55;5.90;;;5.20;;
79128;SDS011;68529;43.286;23.360;2023-08-24T12:03:21;6.20;;;5.60;;
79128;SDS011;68529;43.286;23.360;2023-08-24T12:05:46;6.30;;;5.70;;
79128;SDS011;68529;43.286;23.360;2023-08-24T12:08:11;6.60;;;5.65;;
79128;SDS011;68529;43.286;23.360;2023-08-24T12:10:43;7.40;;;6.70;;
79128;SDS011;68529;43.286;23.360;2023-08-24T12:13:11;9.25;;;6.75;;
79128;SDS011;68529;43.286;23.360;2023-08-24T12:15:37;7.40;;;6.78;;
79128;SDS011;68529;43.286;23.360;2023-08-24T12:18:12;7.78;;;6.78;;
79128;SDS011;68529;43.286;23.360;2023-08-24T12:20:40;8.07;;;6.45;;
79128;SDS011;68529;43.286;23.360;2023-08-24T12:23:06;7.07;;;6.40;;
79128;SDS011;68529;43.286;23.360;2023-08-24T12:25:36;7.68;;;6.88;;
79128;SDS011;68529;43.286;23.360;2023-08-24T12:28:15;8.75;;;6.78;;
79128;SDS011;68529;43.286;23.360;2023-08-24T12:30:48;7.85;;;7.10;;
79128;SDS011;68529;43.286;23.360;2023-08-24T12:33:20;9.50;;;7.15;;
79128;SDS011;68529;43.286;23.360;2023-08-24T12:35:56;16.48;;;8.07;;
79128;SDS011;68529;43.286;23.360;2023-08-24T12:38:24;10.07;;;7.30;;
79128;SDS011;68529;43.286;23.360;2023-08-24T12:40:51;18.70;;;7.78;;
79128;SDS011;68529;43.286;23.360;2023-08-24T12:43:17;11.55;;;7.45;;
79128;SDS011;68529;43.286;23.360;2023-08-24T12:45:42;8.73;;;7.63;;
79128;SDS011;68529;43.286;23.360;2023-08-24T12:48:08;9.20;;;7.40;;
79128;SDS011;68529;43.286;23.360;2023-08-24T12:50:35;7.50;;;6.80;;
79128;SDS011;68529;43.286;23.360;2023-08-24T12:53:01;8.52;;;7.57;;
79128;SDS011;68529;43.286;23.360;2023-08-24T12:55:28;7.35;;;6.60;;
79128;SDS011;68529;43.286;23.360;2023-08-24T12:57:54;11.15;;;6.60;;
79128;SDS011;68529;43.286;23.360;2023-08-24T13:00:19;7.07;;;6.57;;
79128;SDS011;68529;43.286;23.360;2023-08-24T13:02:45;7.38;;;6.53;;
79128;SDS011;68529;43.286;23.360;2023-08-24T13:05:10;6.60;;;6.10;;
79128;SDS011;68529;43.286;23.360;2023-08-24T13:07:36;6.75;;;6.15;;
79128;SDS011;68529;43.286;23.360;2023-08-24T13:10:02;9.40;;;6.35;;
79128;SDS011;68529;43.286;23.360;2023-08-24T13:12:28;6.85;;;6.15;;
79128;SDS011;68529;43.286;23.360;2023-08-24T13:14:54;10.15;;;6.95;;
79128;SDS011;68529;43.286;23.360;2023-08-24T13:17:19;7.53;;;6.78;;
79128;SDS011;68529;43.286;23.360;2023-08-24T13:19:44;7.43;;;5.85;;
79128;SDS011;68529;43.286;23.360;2023-08-24T13:22:10;9.30;;;5.78;;
79128;SDS011;68529;43.286;23.360;2023-08-24T13:24:35;5.80;;;5.32;;
79128;SDS011;68529;43.286;23.360;2023-08-24T13:27:01;10.25;;;5.20;;
79128;SDS011;68529;43.286;23.360;2023-08-24T13:29:28;9.95;;;6.10;;
79128;SDS011;68529;43.286;23.360;2023-08-24T13:31:53;6.40;;;5.80;;
79128;SDS011;68529;43.286;23.360;2023-08-24T13:34:19;11.93;;;5.82;;
79128;SDS011;68529;43.286;23.360;2023-08-24T13:36:44;8.27;;;5.72;;
79128;SDS011;68529;43.286;23.360;2023-08-24T13:39:10;8.70;;;5.65;;
79128;SDS011;68529;43.286;23.360;2023-08-24T13:41:36;6.30;;;5.57;;
79128;SDS011;68529;43.286;23.360;2023-08-24T13:44:01;7.38;;;5.00;;
79128;SDS011;68529;43.286;23.360;2023-08-24T13:46:27;5.88;;;5.38;;
79128;SDS011;68529;43.286;23.360;2023-08-24T13:48:53;7.00;;;5.32;;
79128;SDS011;68529;43.286;23.360;2023-08-24T13:51:18;6.00;;;5.43;;
79128;SDS011;68529;43.286;23.360;2023-08-24T13:53:43;5.75;;;5.32;;
79128;SDS011;68529;43.286;23.360;2023-08-24T13:56:09;5.95;;;5.32;;
79128;SDS011;68529;43.286;23.360;2023-08-24T13:58:34;5.90;;;5.30;;
79128;SDS011;68529;43.286;23.360;2023-08-24T14:01:00;6.47;;;5.82;;
79128;SDS011;68529;43.286;23.360;2023-08-24T14:03:28;6.63;;;6.03;;
79128;SDS011;68529;43.286;23.360;2023-08-24T14:05:56;6.03;;;5.28;;
79128;SDS011;68529;43.286;23.360;2023-08-24T14:08:22;6.20;;;5.70;;
79128;SDS011;68529;43.286;23.360;2023-08-24T14:10:48;8.52;;;6.53;;
79128;SDS011;68529;43.286;23.360;2023-08-24T14:13:14;6.03;;;5.22;;
79128;SDS011;68529;43.286;23.360;2023-08-24T14:15:40;6.85;;;5.38;;
79128;SDS011;68529;43.286;23.360;2023-08-24T14:18:05;10.10;;;6.00;;
79128;SDS011;68529;43.286;23.360;2023-08-24T14:20:31;7.80;;;5.80;;
79128;SDS011;68529;43.286;23.360;2023-08-24T14:22:56;7.20;;;5.65;;
79128;SDS011;68529;43.286;23.360;2023-08-24T14:25:22;6.25;;;5.35;;
79128;SDS011;68529;43.286;23.360;2023-08-24T14:27:47;8.02;;;5.85;;
79128;SDS011;68529;43.286;23.360;2023-08-24T14:30:13;6.07;;;5.43;;
79128;SDS011;68529;43.286;23.360;2023-08-24T14:32:39;7.05;;;4.85;;
79128;SDS011;68529;43.286;23.360;2023-08-24T14:35:04;8.07;;;5.40;;
79128;SDS011;68529;43.286;23.360;2023-08-24T14:37:30;5.68;;;5.15;;
79128;SDS011;68529;43.286;23.360;2023-08-24T14:39:55;5.88;;;5.10;;
79128;SDS011;68529;43.286;23.360;2023-08-24T14:42:21;5.65;;;5.22;;
79128;SDS011;68529;43.286;23.360;2023-08-24T14:44:46;5.88;;;5.32;;
79128;SDS011;68529;43.286;23.360;2023-08-24T14:47:12;6.80;;;5.40;;
79128;SDS011;68529;43.286;23.360;2023-08-24T14:49:37;6.07;;;5.35;;
79128;SDS011;68529;43.286;23.360;2023-08-24T14:52:03;7.43;;;5.53;;
79128;SDS011;68529;43.286;23.360;2023-08-24T14:54:28;6.15;;;5.65;;
79128;SDS011;68529;43.286;23.360;2023-08-24T14:56:53;5.97;;;5.40;;
79128;SDS011;68529;43.286;23.360;2023-08-24T14:59:19;6.13;;;5.57;;
79128;SDS011;68529;43.286;23.360;2023-08-24T15:01:44;5.47;;;4.90;;
79128;SDS011;68529;43.286;23.360;2023-08-24T15:04:10;8.13;;;5.50;;